sensor_id;sensor_type;location;lat;lon;timestamp;P1;durP1;ratioP1;P2;durP2;ratioP2
30036;SDS011;36325;51.512;-0.382;2022-12-18T00:04:47;76.63;;;24.35;;
30036;SDS011;36325;51.512;-0.382;2022-12-18T00:07:57;78.90;;;26.35;;
30036;SDS011;36325;51.512;-0.382;2022-12-18T00:10:51;80.75;;;26.25;;
30036;SDS011;36325;51.512;-0.382;2022-12-18T00:13:45;69.80;;;24.17;;
30036;SDS011;36325;51.512;-0.382;2022-12-18T00:16:48;73.68;;;26.13;;
30036;SDS011;36325;51.512;-0.382;2022-12-18T00:19:47;78.97;;;26.08;;
30036;SDS011;36325;51.512;-0.382;2022-12-18T00:22:54;73.45;;;26.48;;
30036;SDS011;36325;51.512;-0.382;2022-12-18T00:26:03;59.13;;;17.55;;
30036;SDS011;36325;51.512;-0.382;2022-12-18T00:29:11;62.63;;;20.60;;
30036;SDS011;36325;51.512;-0.382;2022-12-18T00:32:09;52.03;;;19.27;;
30036;SDS011;36325;51.512;-0.382;2022-12-18T00:35:04;51.72;;;17.13;;
30036;SDS011;36325;51.512;-0.382;2022-12-18T00:37:58;62.13;;;23.10;;
30036;SDS011;36325;51.512;-0.382;2022-12-18T00:41:22;64.65;;;23.83;;
30036;SDS011;36325;51.512;-0.382;2022-12-18T00:44:55;66.78;;;20.20;;
30036;SDS011;36325;51.512;-0.382;2022-12-18T00:48:38;67.78;;;23.95;;
30036;SDS011;36325;51.512;-0.382;2022-12-18T00:51:54;69.30;;;23.40;;
30036;SDS011;36325;51.512;-0.382;2022-12-18T00:55:16;66.72;;;23.98;;
30036;SDS011;36325;51.512;-0.382;2022-12-18T00:58:15;73.68;;;24.60;;
30036;SDS011;36325;51.512;-0.382;2022-12-18T01:01:24;73.65;;;25.13;;
30036;SDS011;36325;51.512;-0.382;2022-12-18T01:04:31;76.72;;;25.75;;
30036;SDS011;36325;51.512;-0.382;2022-12-18T01:07:49;62.75;;;20.63;;
30036;SDS011;36325;51.512;-0.382;2022-12-18T01:11:28;66.68;;;20.88;;
30036;SDS011;36325;51.512;-0.382;2022-12-18T01:14:29;65.88;;;22.15;;
30036;SDS011;36325;51.512;-0.382;2022-12-18T01:17:38;64.97;;;22.70;;
30036;SDS011;36325;51.512;-0.382;2022-12-18T01:20:50;72.18;;;24.30;;
30036;SDS011;36325;51.512;-0.382;2022-12-18T01:24:05;83.18;;;27.77;;
30036;SDS011;36325;51.512;-0.382;2022-12-18T01:27:15;75.70;;;27.67;;
30036;SDS011;36325;51.512;-0.382;2022-12-18T01:30:12;73.18;;;25.35;;
30036;SDS011;36325;51.512;-0.382;2022-12-18T01:33:32;69.57;;;24.00;;
30036;SDS011;36325;51.512;-0.382;2022-12-18T01:36:30;81.00;;;26.75;;
30036;SDS011;36325;51.512;-0.382;2022-12-18T01:39:26;80.82;;;25.63;;
30036;SDS011;36325;51.512;-0.382;2022-12-18T01:42:33;76.88;;;26.38;;
30036;SDS011;36325;51.512;-0.382;2022-12-18T01:45:21;75.38;;;27.08;;
30036;SDS011;36325;51.512;-0.382;2022-12-18T01:48:45;65.47;;;24.90;;
30036;SDS011;36325;51.512;-0.382;2022-12-18T01:51:50;76.20;;;25.35;;
30036;SDS011;36325;51.512;-0.382;2022-12-18T01:54:49;76.00;;;25.70;;
30036;SDS011;36325;51.512;-0.382;2022-12-18T01:57:52;62.60;;;20.88;;
30036;SDS011;36325;51.512;-0.382;2022-12-18T02:00:52;73.13;;;25.77;;
30036;SDS011;36325;51.512;-0.382;2022-12-18T02:03:46;74.25;;;26.08;;
30036;SDS011;36325;51.512;-0.382;2022-12-18T02:10:28;78.28;;;23.38;;
30036;SDS011;36325;51.512;-0.382;2022-12-18T02:13:53;78.10;;;23.02;;
30036;SDS011;36325;51.512;-0.382;2022-12-18T02:16:51;63.28;;;22.92;;
30036;SDS011;36325;51.512;-0.382;2022-12-18T02:20:40;71.15;;;22.08;;
30036;SDS011;36325;51.512;-0.382;2022-12-18T02:26:20;73.32;;;24.30;;
30036;SDS011;36325;51.512;-0.382;2022-12-18T02:30:02;63.63;;;20.95;;
30036;SDS011;36325;51.512;-0.382;2022-12-18T02:33:11;73.03;;;25.58;;
30036;SDS011;36325;51.512;-0.382;2022-12-18T02:35:57;54.75;;;20.90;;
30036;SDS011;36325;51.512;-0.382;2022-12-18T02:39:05;50.42;;;18.58;;
30036;SDS011;36325;51.512;-0.382;2022-12-18T02:42:03;51.30;;;17.63;;
30036;SDS011;36325;51.512;-0.382;2022-12-18T02:45:03;56.10;;;16.98;;
30036;SDS011;36325;51.512;-0.382;2022-12-18T02:48:01;59.55;;;19.23;;
30036;SDS011;36325;51.512;-0.382;2022-12-18T02:54:10;52.70;;;19.08;;
30036;SDS011;36325;51.512;-0.382;2022-12-18T02:57:14;61.60;;;20.08;;
30036;SDS011;36325;51.512;-0.382;2022-12-18T03:00:34;61.13;;;21.75;;
30036;SDS011;36325;51.512;-0.382;2022-12-18T03:03:46;53.72;;;17.63;;
30036;SDS011;36325;51.512;-0.382;2022-12-18T03:07:09;57.15;;;20.73;;
30036;SDS011;36325;51.512;-0.382;2022-12-18T03:10:26;55.55;;;18.15;;
30036;SDS011;36325;51.512;-0.382;2022-12-18T03:13:19;53.38;;;20.05;;
30036;SDS011;36325;51.512;-0.382;2022-12-18T03:16:46;58.92;;;17.65;;
30036;SDS011;36325;51.512;-0.382;2022-12-18T03:20:14;41.33;;;15.20;;
30036;SDS011;36325;51.512;-0.382;2022-12-18T03:23:47;63.35;;;21.00;;
30036;SDS011;36325;51.512;-0.382;2022-12-18T03:26:54;69.60;;;21.90;;
30036;SDS011;36325;51.512;-0.382;2022-12-18T03:30:25;59.47;;;22.23;;
30036;SDS011;36325;51.512;-0.382;2022-12-18T03:33:45;61.38;;;21.08;;
30036;SDS011;36325;51.512;-0.382;2022-12-18T03:36:55;63.45;;;21.35;;
30036;SDS011;36325;51.512;-0.382;2022-12-18T03:39:59;62.13;;;22.25;;
30036;SDS011;36325;51.512;-0.382;2022-12-18T03:43:10;65.13;;;22.90;;
30036;SDS011;36325;51.512;-0.382;2022-12-18T03:53:46;75.15;;;22.02;;
30036;SDS011;36325;51.512;-0.382;2022-12-18T03:57:05;62.65;;;19.35;;
30036;SDS011;36325;51.512;-0.382;2022-12-18T04:00:09;59.47;;;21.85;;
30036;SDS011;36325;51.512;-0.382;2022-12-18T04:03:20;56.63;;;20.52;;
30036;SDS011;36325;51.512;-0.382;2022-12-18T04:06:25;63.85;;;20.92;;
30036;SDS011;36325;51.512;-0.382;2022-12-18T04:09:19;64.45;;;21.42;;
30036;SDS011;36325;51.512;-0.382;2022-12-18T04:12:10;60.22;;;21.83;;
30036;SDS011;36325;51.512;-0.382;2022-12-18T04:15:03;56.35;;;20.80;;
30036;SDS011;36325;51.512;-0.382;2022-12-18T04:18:03;61.72;;;20.85;;
30036;SDS011;36325;51.512;-0.382;2022-12-18T04:21:11;53.08;;;19.17;;
30036;SDS011;36325;51.512;-0.382;2022-12-18T04:24:28;55.53;;;19.42;;
30036;SDS011;36325;51.512;-0.382;2022-12-18T04:27:38;54.22;;;19.17;;
30036;SDS011;36325;51.512;-0.382;2022-12-18T04:30:42;54.22;;;18.70;;
30036;SDS011;36325;51.512;-0.382;2022-12-18T04:33:41;55.97;;;20.02;;
30036;SDS011;36325;51.512;-0.382;2022-12-18T04:37:03;62.13;;;21.37;;
30036;SDS011;36325;51.512;-0.382;2022-12-18T04:40:09;41.47;;;15.95;;
30036;SDS011;36325;51.512;-0.382;2022-12-18T04:43:10;45.58;;;17.10;;
30036;SDS011;36325;51.512;-0.382;2022-12-18T04:46:25;46.53;;;17.13;;
30036;SDS011;36325;51.512;-0.382;2022-12-18T04:49:34;56.38;;;18.33;;
30036;SDS011;36325;51.512;-0.382;2022-12-18T04:52:56;53.42;;;17.67;;
30036;SDS011;36325;51.512;-0.382;2022-12-18T04:56:25;47.85;;;17.02;;
30036;SDS011;36325;51.512;-0.382;2022-12-18T04:59:39;52.85;;;16.20;;
30036;SDS011;36325;51.512;-0.382;2022-12-18T05:03:07;48.60;;;18.13;;
30036;SDS011;36325;51.512;-0.382;2022-12-18T05:06:03;49.60;;;18.05;;
30036;SDS011;36325;51.512;-0.382;2022-12-18T05:09:21;51.03;;;19.23;;
30036;SDS011;36325;51.512;-0.382;2022-12-18T05:12:28;50.00;;;16.33;;
30036;SDS011;36325;51.512;-0.382;2022-12-18T05:16:02;43.42;;;14.45;;
30036;SDS011;36325;51.512;-0.382;2022-12-18T05:19:03;52.88;;;17.67;;
30036;SDS011;36325;51.512;-0.382;2022-12-18T05:22:04;48.55;;;16.33;;
30036;SDS011;36325;51.512;-0.382;2022-12-18T05:24:53;42.60;;;14.65;;
30036;SDS011;36325;51.512;-0.382;2022-12-18T05:27:54;49.35;;;14.75;;
30036;SDS011;36325;51.512;-0.382;2022-12-18T05:30:58;37.17;;;15.02;;
30036;SDS011;36325;51.512;-0.382;2022-12-18T05:33:59;40.15;;;15.20;;
30036;SDS011;36325;51.512;-0.382;2022-12-18T05:36:53;36.97;;;14.23;;
30036;SDS011;36325;51.512;-0.382;2022-12-18T05:39:51;47.35;;;15.30;;
30036;SDS011;36325;51.512;-0.382;2022-12-18T05:42:53;46.88;;;14.30;;
30036;SDS011;36325;51.512;-0.382;2022-12-18T05:46:11;39.50;;;13.73;;
30036;SDS011;36325;51.512;-0.382;2022-12-18T05:49:13;47.40;;;15.60;;
30036;SDS011;36325;51.512;-0.382;2022-12-18T05:52:16;39.83;;;14.23;;
30036;SDS011;36325;51.512;-0.382;2022-12-18T05:55:23;50.60;;;17.50;;
30036;SDS011;36325;51.512;-0.382;2022-12-18T05:58:19;53.92;;;17.50;;
30036;SDS011;36325;51.512;-0.382;2022-12-18T06:01:23;45.67;;;16.05;;
30036;SDS011;36325;51.512;-0.382;2022-12-18T06:04:27;51.95;;;17.88;;
30036;SDS011;36325;51.512;-0.382;2022-12-18T06:07:31;43.42;;;16.55;;
30036;SDS011;36325;51.512;-0.382;2022-12-18T06:10:30;47.95;;;17.50;;
30036;SDS011;36325;51.512;-0.382;2022-12-18T06:13:33;50.35;;;16.58;;
30036;SDS011;36325;51.512;-0.382;2022-12-18T06:16:32;52.10;;;15.82;;
30036;SDS011;36325;51.512;-0.382;2022-12-18T06:19:49;49.40;;;18.30;;
30036;SDS011;36325;51.512;-0.382;2022-12-18T06:23:07;49.58;;;15.98;;
30036;SDS011;36325;51.512;-0.382;2022-12-18T06:26:11;47.72;;;16.05;;
30036;SDS011;36325;51.512;-0.382;2022-12-18T06:28:54;44.53;;;18.33;;
30036;SDS011;36325;51.512;-0.382;2022-12-18T06:34:46;47.88;;;17.50;;
30036;SDS011;36325;51.512;-0.382;2022-12-18T06:37:58;45.92;;;16.65;;
30036;SDS011;36325;51.512;-0.382;2022-12-18T06:41:20;54.85;;;18.13;;
30036;SDS011;36325;51.512;-0.382;2022-12-18T06:44:37;37.38;;;13.85;;
30036;SDS011;36325;51.512;-0.382;2022-12-18T06:47:25;49.45;;;19.05;;
30036;SDS011;36325;51.512;-0.382;2022-12-18T06:50:23;49.88;;;17.90;;
30036;SDS011;36325;51.512;-0.382;2022-12-18T06:53:19;40.67;;;16.55;;
30036;SDS011;36325;51.512;-0.382;2022-12-18T06:56:20;51.70;;;16.45;;
30036;SDS011;36325;51.512;-0.382;2022-12-18T06:59:05;46.75;;;17.33;;
30036;SDS011;36325;51.512;-0.382;2022-12-18T07:02:12;51.00;;;16.70;;
30036;SDS011;36325;51.512;-0.382;2022-12-18T07:05:26;52.75;;;20.83;;
30036;SDS011;36325;51.512;-0.382;2022-12-18T07:08:32;43.10;;;18.27;;
30036;SDS011;36325;51.512;-0.382;2022-12-18T07:11:39;53.22;;;19.50;;
30036;SDS011;36325;51.512;-0.382;2022-12-18T07:14:40;63.13;;;22.13;;
30036;SDS011;36325;51.512;-0.382;2022-12-18T07:17:49;57.63;;;19.92;;
30036;SDS011;36325;51.512;-0.382;2022-12-18T07:20:57;49.05;;;17.58;;
30036;SDS011;36325;51.512;-0.382;2022-12-18T07:24:22;49.75;;;18.42;;
30036;SDS011;36325;51.512;-0.382;2022-12-18T07:27:20;46.03;;;19.15;;
30036;SDS011;36325;51.512;-0.382;2022-12-18T07:30:09;57.17;;;18.30;;
30036;SDS011;36325;51.512;-0.382;2022-12-18T07:33:19;51.90;;;21.50;;
30036;SDS011;36325;51.512;-0.382;2022-12-18T07:36:25;50.05;;;19.63;;
30036;SDS011;36325;51.512;-0.382;2022-12-18T07:39:22;45.83;;;15.85;;
30036;SDS011;36325;51.512;-0.382;2022-12-18T07:42:24;43.67;;;16.73;;
30036;SDS011;36325;51.512;-0.382;2022-12-18T07:45:15;47.78;;;19.63;;
30036;SDS011;36325;51.512;-0.382;2022-12-18T07:48:28;51.55;;;17.88;;
30036;SDS011;36325;51.512;-0.382;2022-12-18T07:51:37;51.35;;;17.85;;
30036;SDS011;36325;51.512;-0.382;2022-12-18T07:54:57;54.75;;;18.13;;
30036;SDS011;36325;51.512;-0.382;2022-12-18T07:58:17;51.40;;;19.38;;
30036;SDS011;36325;51.512;-0.382;2022-12-18T08:01:21;54.25;;;19.02;;
30036;SDS011;36325;51.512;-0.382;2022-12-18T08:04:24;51.58;;;18.73;;
30036;SDS011;36325;51.512;-0.382;2022-12-18T08:07:40;49.60;;;18.23;;
30036;SDS011;36325;51.512;-0.382;2022-12-18T08:10:47;46.35;;;19.45;;
30036;SDS011;36325;51.512;-0.382;2022-12-18T08:13:47;45.15;;;17.25;;
30036;SDS011;36325;51.512;-0.382;2022-12-18T08:16:39;43.30;;;18.85;;
30036;SDS011;36325;51.512;-0.382;2022-12-18T08:19:44;50.33;;;20.23;;
30036;SDS011;36325;51.512;-0.382;2022-12-18T08:22:52;43.63;;;17.70;;
30036;SDS011;36325;51.512;-0.382;2022-12-18T08:25:49;55.92;;;20.60;;
30036;SDS011;36325;51.512;-0.382;2022-12-18T08:28:53;50.40;;;19.38;;
30036;SDS011;36325;51.512;-0.382;2022-12-18T08:32:00;48.63;;;19.63;;
30036;SDS011;36325;51.512;-0.382;2022-12-18T08:35:14;54.10;;;19.02;;
30036;SDS011;36325;51.512;-0.382;2022-12-18T08:38:24;57.50;;;19.60;;
30036;SDS011;36325;51.512;-0.382;2022-12-18T08:41:29;46.80;;;18.63;;
30036;SDS011;36325;51.512;-0.382;2022-12-18T08:44:50;47.20;;;20.92;;
30036;SDS011;36325;51.512;-0.382;2022-12-18T08:47:49;51.00;;;20.25;;
30036;SDS011;36325;51.512;-0.382;2022-12-18T08:51:09;53.30;;;20.02;;
30036;SDS011;36325;51.512;-0.382;2022-12-18T08:54:13;53.15;;;19.83;;
30036;SDS011;36325;51.512;-0.382;2022-12-18T08:57:23;50.05;;;19.83;;
30036;SDS011;36325;51.512;-0.382;2022-12-18T09:00:09;50.85;;;18.45;;
30036;SDS011;36325;51.512;-0.382;2022-12-18T09:03:35;50.28;;;17.42;;
30036;SDS011;36325;51.512;-0.382;2022-12-18T09:06:49;46.05;;;18.30;;
30036;SDS011;36325;51.512;-0.382;2022-12-18T09:10:18;44.80;;;17.58;;
30036;SDS011;36325;51.512;-0.382;2022-12-18T09:13:13;54.40;;;17.77;;
30036;SDS011;36325;51.512;-0.382;2022-12-18T09:16:13;49.05;;;18.63;;
30036;SDS011;36325;51.512;-0.382;2022-12-18T09:19:14;44.47;;;17.27;;
30036;SDS011;36325;51.512;-0.382;2022-12-18T09:22:39;46.42;;;17.95;;
30036;SDS011;36325;51.512;-0.382;2022-12-18T09:25:40;44.53;;;16.27;;
30036;SDS011;36325;51.512;-0.382;2022-12-18T09:28:46;51.47;;;18.27;;
30036;SDS011;36325;51.512;-0.382;2022-12-18T09:31:46;51.17;;;22.43;;
30036;SDS011;36325;51.512;-0.382;2022-12-18T09:34:55;56.42;;;21.33;;
30036;SDS011;36325;51.512;-0.382;2022-12-18T09:38:02;49.75;;;17.38;;
30036;SDS011;36325;51.512;-0.382;2022-12-18T09:44:43;44.08;;;17.42;;
30036;SDS011;36325;51.512;-0.382;2022-12-18T09:48:15;49.70;;;21.25;;
30036;SDS011;36325;51.512;-0.382;2022-12-18T09:51:28;54.05;;;22.13;;
30036;SDS011;36325;51.512;-0.382;2022-12-18T09:54:43;53.80;;;23.20;;
30036;SDS011;36325;51.512;-0.382;2022-12-18T09:57:52;50.92;;;22.52;;
30036;SDS011;36325;51.512;-0.382;2022-12-18T10:01:10;46.95;;;21.83;;
30036;SDS011;36325;51.512;-0.382;2022-12-18T10:04:24;52.90;;;18.05;;
30036;SDS011;36325;51.512;-0.382;2022-12-18T10:07:36;50.28;;;17.23;;
30036;SDS011;36325;51.512;-0.382;2022-12-18T10:11:09;46.70;;;18.02;;
30036;SDS011;36325;51.512;-0.382;2022-12-18T10:15:13;42.70;;;16.70;;
30036;SDS011;36325;51.512;-0.382;2022-12-18T10:18:20;44.30;;;16.17;;
30036;SDS011;36325;51.512;-0.382;2022-12-18T10:21:56;51.05;;;14.88;;
30036;SDS011;36325;51.512;-0.382;2022-12-18T10:29:16;46.03;;;17.83;;
30036;SDS011;36325;51.512;-0.382;2022-12-18T10:32:28;42.67;;;18.00;;
30036;SDS011;36325;51.512;-0.382;2022-12-18T10:35:43;46.75;;;17.95;;
30036;SDS011;36325;51.512;-0.382;2022-12-18T10:39:42;48.67;;;16.52;;
30036;SDS011;36325;51.512;-0.382;2022-12-18T10:42:27;43.38;;;20.08;;
30036;SDS011;36325;51.512;-0.382;2022-12-18T10:45:38;48.92;;;19.40;;
30036;SDS011;36325;51.512;-0.382;2022-12-18T10:49:03;46.22;;;19.48;;
30036;SDS011;36325;51.512;-0.382;2022-12-18T10:55:45;48.75;;;19.60;;
30036;SDS011;36325;51.512;-0.382;2022-12-18T10:59:03;42.50;;;18.10;;
30036;SDS011;36325;51.512;-0.382;2022-12-18T11:02:25;42.97;;;18.15;;
30036;SDS011;36325;51.512;-0.382;2022-12-18T11:05:47;41.33;;;17.10;;
30036;SDS011;36325;51.512;-0.382;2022-12-18T11:13:15;40.47;;;17.33;;
30036;SDS011;36325;51.512;-0.382;2022-12-18T11:16:29;35.65;;;16.52;;
30036;SDS011;36325;51.512;-0.382;2022-12-18T11:20:25;38.67;;;15.80;;
30036;SDS011;36325;51.512;-0.382;2022-12-18T11:23:36;38.88;;;17.10;;
30036;SDS011;36325;51.512;-0.382;2022-12-18T11:27:00;37.28;;;16.27;;
30036;SDS011;36325;51.512;-0.382;2022-12-18T11:30:35;43.00;;;16.33;;
30036;SDS011;36325;51.512;-0.382;2022-12-18T11:33:29;43.30;;;16.85;;
30036;SDS011;36325;51.512;-0.382;2022-12-18T11:40:03;44.55;;;18.30;;
30036;SDS011;36325;51.512;-0.382;2022-12-18T11:43:30;41.45;;;17.90;;
30036;SDS011;36325;51.512;-0.382;2022-12-18T11:47:10;43.85;;;14.57;;
30036;SDS011;36325;51.512;-0.382;2022-12-18T11:54:00;47.00;;;19.02;;
30036;SDS011;36325;51.512;-0.382;2022-12-18T11:57:36;43.55;;;20.70;;
30036;SDS011;36325;51.512;-0.382;2022-12-18T12:14:14;47.15;;;19.13;;
30036;SDS011;36325;51.512;-0.382;2022-12-18T12:18:01;39.85;;;16.92;;
30036;SDS011;36325;51.512;-0.382;2022-12-18T12:34:55;50.28;;;21.15;;
30036;SDS011;36325;51.512;-0.382;2022-12-18T12:38:46;53.22;;;19.98;;
30036;SDS011;36325;51.512;-0.382;2022-12-18T12:41:56;58.53;;;22.50;;
30036;SDS011;36325;51.512;-0.382;2022-12-18T12:45:34;58.33;;;23.23;;
30036;SDS011;36325;51.512;-0.382;2022-12-18T12:48:49;48.17;;;20.05;;
30036;SDS011;36325;51.512;-0.382;2022-12-18T12:52:05;44.20;;;17.95;;
30036;SDS011;36325;51.512;-0.382;2022-12-18T12:55:24;55.47;;;21.17;;
30036;SDS011;36325;51.512;-0.382;2022-12-18T12:58:48;50.92;;;21.52;;
30036;SDS011;36325;51.512;-0.382;2022-12-18T13:02:22;47.63;;;20.63;;
30036;SDS011;36325;51.512;-0.382;2022-12-18T13:05:31;54.83;;;23.08;;
30036;SDS011;36325;51.512;-0.382;2022-12-18T13:09:05;51.30;;;20.58;;
30036;SDS011;36325;51.512;-0.382;2022-12-18T13:12:12;41.88;;;19.65;;
30036;SDS011;36325;51.512;-0.382;2022-12-18T13:21:24;45.42;;;20.58;;
30036;SDS011;36325;51.512;-0.382;2022-12-18T13:24:33;46.85;;;19.75;;
30036;SDS011;36325;51.512;-0.382;2022-12-18T13:31:07;44.42;;;19.17;;
30036;SDS011;36325;51.512;-0.382;2022-12-18T13:34:29;52.55;;;20.23;;
30036;SDS011;36325;51.512;-0.382;2022-12-18T13:37:41;48.50;;;19.08;;
30036;SDS011;36325;51.512;-0.382;2022-12-18T13:43:53;37.75;;;16.10;;
30036;SDS011;36325;51.512;-0.382;2022-12-18T13:47:34;39.38;;;16.48;;
30036;SDS011;36325;51.512;-0.382;2022-12-18T13:50:37;39.28;;;18.92;;
30036;SDS011;36325;51.512;-0.382;2022-12-18T13:53:53;34.17;;;16.30;;
30036;SDS011;36325;51.512;-0.382;2022-12-18T13:56:58;40.25;;;16.85;;
30036;SDS011;36325;51.512;-0.382;2022-12-18T13:59:58;41.70;;;17.65;;
30036;SDS011;36325;51.512;-0.382;2022-12-18T14:03:32;41.38;;;17.58;;
30036;SDS011;36325;51.512;-0.382;2022-12-18T14:07:04;36.05;;;14.05;;
30036;SDS011;36325;51.512;-0.382;2022-12-18T14:10:21;44.33;;;17.83;;
30036;SDS011;36325;51.512;-0.382;2022-12-18T14:13:30;45.53;;;15.75;;
30036;SDS011;36325;51.512;-0.382;2022-12-18T14:16:37;33.60;;;14.23;;
30036;SDS011;36325;51.512;-0.382;2022-12-18T14:20:05;33.17;;;13.88;;
30036;SDS011;36325;51.512;-0.382;2022-12-18T14:26:58;28.80;;;10.57;;
30036;SDS011;36325;51.512;-0.382;2022-12-18T14:30:37;27.83;;;12.68;;
30036;SDS011;36325;51.512;-0.382;2022-12-18T14:33:32;37.30;;;14.73;;
30036;SDS011;36325;51.512;-0.382;2022-12-18T14:36:51;34.92;;;14.52;;
30036;SDS011;36325;51.512;-0.382;2022-12-18T14:40:02;30.33;;;14.13;;
30036;SDS011;36325;51.512;-0.382;2022-12-18T14:43:05;33.35;;;16.00;;
30036;SDS011;36325;51.512;-0.382;2022-12-18T14:46:04;35.50;;;14.77;;
30036;SDS011;36325;51.512;-0.382;2022-12-18T14:49:21;31.75;;;14.00;;
30036;SDS011;36325;51.512;-0.382;2022-12-18T14:52:29;28.77;;;11.15;;
30036;SDS011;36325;51.512;-0.382;2022-12-18T14:55:26;27.00;;;11.98;;
30036;SDS011;36325;51.512;-0.382;2022-12-18T14:58:16;35.40;;;13.88;;
30036;SDS011;36325;51.512;-0.382;2022-12-18T15:01:29;24.17;;;11.88;;
30036;SDS011;36325;51.512;-0.382;2022-12-18T15:04:47;31.48;;;14.30;;
30036;SDS011;36325;51.512;-0.382;2022-12-18T15:08:57;28.00;;;10.80;;
30036;SDS011;36325;51.512;-0.382;2022-12-18T15:11:48;27.23;;;13.30;;
30036;SDS011;36325;51.512;-0.382;2022-12-18T15:14:52;25.65;;;11.30;;
30036;SDS011;36325;51.512;-0.382;2022-12-18T15:18:12;31.80;;;12.38;;
30036;SDS011;36325;51.512;-0.382;2022-12-18T15:21:28;25.85;;;12.00;;
30036;SDS011;36325;51.512;-0.382;2022-12-18T15:24:24;27.67;;;12.32;;
30036;SDS011;36325;51.512;-0.382;2022-12-18T15:27:22;27.88;;;12.45;;
30036;SDS011;36325;51.512;-0.382;2022-12-18T15:30:33;25.58;;;11.20;;
30036;SDS011;36325;51.512;-0.382;2022-12-18T15:33:35;34.75;;;14.48;;
30036;SDS011;36325;51.512;-0.382;2022-12-18T15:36:58;18.52;;;8.90;;
30036;SDS011;36325;51.512;-0.382;2022-12-18T15:40:06;27.35;;;11.63;;
30036;SDS011;36325;51.512;-0.382;2022-12-18T15:43:08;18.45;;;8.75;;
30036;SDS011;36325;51.512;-0.382;2022-12-18T15:46:48;22.73;;;10.95;;
30036;SDS011;36325;51.512;-0.382;2022-12-18T15:49:47;24.15;;;11.77;;
30036;SDS011;36325;51.512;-0.382;2022-12-18T15:52:31;25.40;;;12.63;;
30036;SDS011;36325;51.512;-0.382;2022-12-18T15:55:45;23.38;;;9.15;;
30036;SDS011;36325;51.512;-0.382;2022-12-18T15:59:04;27.80;;;11.85;;
30036;SDS011;36325;51.512;-0.382;2022-12-18T16:02:16;21.75;;;11.23;;
30036;SDS011;36325;51.512;-0.382;2022-12-18T16:05:19;25.13;;;11.10;;
30036;SDS011;36325;51.512;-0.382;2022-12-18T16:08:24;27.30;;;10.43;;
30036;SDS011;36325;51.512;-0.382;2022-12-18T16:11:36;23.33;;;10.15;;
30036;SDS011;36325;51.512;-0.382;2022-12-18T16:15:06;24.40;;;9.88;;
30036;SDS011;36325;51.512;-0.382;2022-12-18T16:18:31;14.43;;;7.63;;
30036;SDS011;36325;51.512;-0.382;2022-12-18T16:21:33;23.70;;;10.93;;
30036;SDS011;36325;51.512;-0.382;2022-12-18T16:24:43;22.60;;;10.75;;
30036;SDS011;36325;51.512;-0.382;2022-12-18T16:27:38;23.13;;;9.15;;
30036;SDS011;36325;51.512;-0.382;2022-12-18T16:31:01;20.83;;;8.88;;
30036;SDS011;36325;51.512;-0.382;2022-12-18T16:34:24;22.42;;;10.77;;
30036;SDS011;36325;51.512;-0.382;2022-12-18T16:37:20;16.75;;;9.73;;
30036;SDS011;36325;51.512;-0.382;2022-12-18T16:40:35;20.38;;;9.40;;
30036;SDS011;36325;51.512;-0.382;2022-12-18T16:43:54;17.42;;;9.45;;
30036;SDS011;36325;51.512;-0.382;2022-12-18T16:47:06;21.38;;;10.23;;
30036;SDS011;36325;51.512;-0.382;2022-12-18T16:50:04;20.27;;;9.55;;
30036;SDS011;36325;51.512;-0.382;2022-12-18T16:53:02;18.48;;;8.48;;
30036;SDS011;36325;51.512;-0.382;2022-12-18T16:56:17;16.27;;;9.30;;
30036;SDS011;36325;51.512;-0.382;2022-12-18T16:59:50;17.65;;;7.18;;
30036;SDS011;36325;51.512;-0.382;2022-12-18T17:02:53;11.20;;;7.10;;
30036;SDS011;36325;51.512;-0.382;2022-12-18T17:06:08;14.70;;;6.15;;
30036;SDS011;36325;51.512;-0.382;2022-12-18T17:09:01;8.73;;;5.15;;
30036;SDS011;36325;51.512;-0.382;2022-12-18T17:12:15;7.13;;;4.50;;
30036;SDS011;36325;51.512;-0.382;2022-12-18T17:15:21;11.65;;;5.63;;
30036;SDS011;36325;51.512;-0.382;2022-12-18T17:18:33;10.23;;;5.95;;
30036;SDS011;36325;51.512;-0.382;2022-12-18T17:21:50;10.07;;;5.00;;
30036;SDS011;36325;51.512;-0.382;2022-12-18T17:24:38;13.68;;;6.07;;
30036;SDS011;36325;51.512;-0.382;2022-12-18T17:27:43;12.23;;;6.35;;
30036;SDS011;36325;51.512;-0.382;2022-12-18T17:30:54;8.75;;;6.22;;
30036;SDS011;36325;51.512;-0.382;2022-12-18T17:34:02;10.88;;;6.22;;
30036;SDS011;36325;51.512;-0.382;2022-12-18T17:37:49;10.73;;;6.00;;
30036;SDS011;36325;51.512;-0.382;2022-12-18T17:41:10;15.65;;;7.63;;
30036;SDS011;36325;51.512;-0.382;2022-12-18T17:44:37;10.50;;;5.97;;
30036;SDS011;36325;51.512;-0.382;2022-12-18T17:48:12;14.68;;;6.55;;
30036;SDS011;36325;51.512;-0.382;2022-12-18T17:51:14;10.10;;;6.03;;
30036;SDS011;36325;51.512;-0.382;2022-12-18T17:54:42;7.40;;;4.60;;
30036;SDS011;36325;51.512;-0.382;2022-12-18T17:58:05;11.00;;;5.53;;
30036;SDS011;36325;51.512;-0.382;2022-12-18T18:04:37;10.40;;;5.32;;
30036;SDS011;36325;51.512;-0.382;2022-12-18T18:07:38;8.95;;;4.90;;
30036;SDS011;36325;51.512;-0.382;2022-12-18T18:10:46;14.05;;;5.70;;
30036;SDS011;36325;51.512;-0.382;2022-12-18T18:14:12;9.68;;;5.15;;
30036;SDS011;36325;51.512;-0.382;2022-12-18T18:17:15;11.07;;;6.07;;
30036;SDS011;36325;51.512;-0.382;2022-12-18T18:20:37;8.45;;;5.72;;
30036;SDS011;36325;51.512;-0.382;2022-12-18T18:23:39;15.23;;;6.70;;
30036;SDS011;36325;51.512;-0.382;2022-12-18T18:30:14;12.20;;;6.00;;
30036;SDS011;36325;51.512;-0.382;2022-12-18T18:33:24;8.00;;;4.43;;
30036;SDS011;36325;51.512;-0.382;2022-12-18T18:36:37;10.90;;;5.27;;
30036;SDS011;36325;51.512;-0.382;2022-12-18T18:39:42;12.00;;;5.45;;
30036;SDS011;36325;51.512;-0.382;2022-12-18T18:42:33;8.32;;;5.10;;
30036;SDS011;36325;51.512;-0.382;2022-12-18T18:45:32;9.98;;;5.55;;
30036;SDS011;36325;51.512;-0.382;2022-12-18T18:48:35;8.23;;;5.53;;
30036;SDS011;36325;51.512;-0.382;2022-12-18T18:51:42;12.32;;;5.63;;
30036;SDS011;36325;51.512;-0.382;2022-12-18T18:54:47;10.80;;;5.97;;
30036;SDS011;36325;51.512;-0.382;2022-12-18T18:57:53;10.25;;;4.72;;
30036;SDS011;36325;51.512;-0.382;2022-12-18T19:01:01;11.05;;;5.22;;
30036;SDS011;36325;51.512;-0.382;2022-12-18T19:04:03;12.05;;;5.18;;
30036;SDS011;36325;51.512;-0.382;2022-12-18T19:10:24;10.82;;;6.13;;
30036;SDS011;36325;51.512;-0.382;2022-12-18T19:13:30;13.82;;;6.00;;
30036;SDS011;36325;51.512;-0.382;2022-12-18T19:16:33;9.73;;;5.22;;
30036;SDS011;36325;51.512;-0.382;2022-12-18T19:20:04;9.45;;;5.25;;
30036;SDS011;36325;51.512;-0.382;2022-12-18T19:23:32;17.15;;;6.68;;
30036;SDS011;36325;51.512;-0.382;2022-12-18T19:29:30;14.55;;;6.45;;
30036;SDS011;36325;51.512;-0.382;2022-12-18T19:31:58;8.15;;;4.78;;
30036;SDS011;36325;51.512;-0.382;2022-12-18T19:34:26;10.07;;;5.82;;
30036;SDS011;36325;51.512;-0.382;2022-12-18T19:36:53;15.20;;;6.05;;
30036;SDS011;36325;51.512;-0.382;2022-12-18T19:39:25;10.65;;;5.15;;
30036;SDS011;36325;51.512;-0.382;2022-12-18T19:41:52;12.13;;;6.22;;
30036;SDS011;36325;51.512;-0.382;2022-12-18T19:44:20;10.63;;;5.25;;
30036;SDS011;36325;51.512;-0.382;2022-12-18T19:46:50;8.80;;;4.82;;
30036;SDS011;36325;51.512;-0.382;2022-12-18T19:49:18;8.20;;;4.43;;
30036;SDS011;36325;51.512;-0.382;2022-12-18T19:51:48;16.33;;;5.28;;
30036;SDS011;36325;51.512;-0.382;2022-12-18T19:54:16;13.02;;;5.28;;
30036;SDS011;36325;51.512;-0.382;2022-12-18T19:56:44;12.77;;;6.30;;